Gaz Venture — 3FLQ4 — position and weather

sailwx.info

Track history (hours):
 
Tides and Currents Weather Stations Pressure Air Temp Water Temp Dewpoint Dewpoint Depression Visibility Wind Speed Wind Dir Waves Ship Positions

Gaz Venture

Last reported at 2014-Aug-17 06:33 UTC. Time now 2014-Aug-23 13:26 UTC.
Position N 36°21' E 014°48'.

Length 120 m; draft 7.9 m.

Type: Ship. MMSI: 356141000.

Date/timePositionNaut miles runAvg speedWind from/ knotsBaromVisibWave heightAir tempDewpointWater temp
2014-Aug-17 06:33N 36°21' E 014°48'1514.8
2014-Aug-17 05:33N 36°26' E 014°31'1514.8
2014-Aug-17 04:33N 36°31' E 014°13'1514.7
2014-Aug-17 03:33N 36°36' E 013°56'1914.7
2014-Aug-17 02:15N 36°42' E 013°33'1014.8
2014-Aug-17 01:33N 36°45' E 013°21'1514.7
2014-Aug-17 00:33N 36°50' E 013°04'1514.4
2014-Aug-16 23:32N 36°54' E 012°46'1414.3
2014-Aug-16 22:33N 36°59' E 012°30'5714.3
2014-Aug-16 18:33N 37°17' E 011°22'1414.3
2014-Aug-16 17:33N 37°23' E 011°06'1514.5
2014-Aug-16 16:33N 37°27' E 010°48'1414.3
2014-Aug-16 15:33N 37°31' E 010°31'1514.8
2014-Aug-16 14:33N 37°34' E 010°13'1615.1
2014-Aug-16 13:28N 37°32' E 009°52'1514.7
2014-Aug-16 12:28N 37°28' E 009°34'1314.4
2014-Aug-16 11:33N 37°24' E 009°18'  
2014-Aug-13 15:28N 36°45' E 000°39'1 0.7
2014-Aug-13 14:22N 36°44' E 000°38'1 0.9
2014-Aug-13 13:28N 36°44' E 000°37'1 0.9
2014-Aug-13 12:28N 36°44' E 000°35'11 1.2
2014-Aug-13 03:10N 36°40' E 000°23'5 1.6
2014-Aug-13 00:16N 36°37' E 000°18'1 1.3
2014-Aug-12 23:16N 36°37' E 000°16'1 1.0
2014-Aug-12 22:28N 36°36' E 000°15'1 0.8
2014-Aug-12 21:11N 36°36' E 000°14'1 0.9
2014-Aug-12 20:20N 36°35' E 000°14'1 0.7
2014-Aug-12 19:28N 36°35' E 000°13'11 0.8
2014-Aug-12 05:19N 36°29' E 000°01'1 1.1
2014-Aug-12 04:28N 36°29' W 000°00'1 1.1
2014-Aug-12 03:28N 36°28' W 000°02'1 1.2
2014-Aug-12 02:25N 36°27' W 000°03'3 1.1
2014-Aug-11 23:19N 36°26' W 000°06'4 1.0
2014-Aug-11 19:31N 36°24' W 000°11'1 1.3
2014-Aug-11 18:28N 36°24' W 000°12'6 6.7
2014-Aug-11 17:33N 36°18' W 000°13'1313.2
2014-Aug-11 16:33N 36°04' W 000°14'1312.9
2014-Aug-11 15:33N 35°52' W 000°15'2 0.1
2014-Aug-10 20:33N 35°51' W 000°17'4 4.2
2014-Aug-10 19:33N 35°53' W 000°13'9 9.5
2014-Aug-10 18:33N 36°03' W 000°12'1 1.4
2014-Aug-10 17:33N 36°04' W 000°13'1 1.2
2014-Aug-10 16:30N 36°05' W 000°14'9 7.6
2014-Aug-10 15:22N 36°00' W 000°05'1 0.7
2014-Aug-10 14:22N 36°00' W 000°06'1 1.0
2014-Aug-10 13:22N 36°01' W 000°07'1 0.8
2014-Aug-10 12:31N 36°01' W 000°08'1 0.5
2014-Aug-10 11:25N 36°01' W 000°08'1 0.9
2014-Aug-10 10:32N 36°02' W 000°08'6 5.7
2014-Aug-10 09:31N 35°58' W 000°13'0 0.3
2014-Aug-10 08:25N 35°58' W 000°13'1 0.3
2014-Aug-10 06:28N 35°58' W 000°12'1 0.5
2014-Aug-10 05:28N 35°58' W 000°12'1 0.6
2014-Aug-10 04:31N 35°59' W 000°12'1 0.7
2014-Aug-10 03:19N 35°59' W 000°12'1 0.7
2014-Aug-10 02:28N 35°60' W 000°13'3 2.6
2014-Aug-10 01:09N 36°01' W 000°08'1 0.7
2014-Aug-10 00:21N 36°01' W 000°09'1 1.1
2014-Aug-09 23:33N 36°02' W 000°10'1 0.9
2014-Aug-09 22:29N 36°02' W 000°11'3 3.0
2014-Aug-09 21:33N 36°03' W 000°07'1614.8
2014-Aug-09 20:30N 36°12' E 000°08'1815.5
2014-Aug-09 19:19N 36°25' E 000°25'1114.9
2014-Aug-09 18:33N 36°33' E 000°35'1615.0
2014-Aug-09 17:30N 36°43' E 000°50'1415.3
2014-Aug-09 16:33N 36°53' E 001°03'1715.4
2014-Aug-09 15:28N 37°05' E 001°18'1415.6
2014-Aug-09 14:33N 37°14' E 001°31'1615.7
2014-Aug-09 13:33N 37°25' E 001°46'1515.1
2014-Aug-09 12:32N 37°35' E 001°60'1515.1
2014-Aug-09 11:34N 37°45' E 002°14'1515.1
2014-Aug-09 10:34N 37°56' E 002°28'1615.7
2014-Aug-09 09:33N 38°06' E 002°43'1615.7
2014-Aug-09 08:33N 38°17' E 002°57'1515.4
2014-Aug-09 07:33N 38°27' E 003°11'1515.2
2014-Aug-09 06:33N 38°38' E 003°26'1515.1
2014-Aug-09 05:33N 38°48' E 003°40'1515.0
2014-Aug-09 04:33N 38°58' E 003°54'1514.9
2014-Aug-09 03:33N 39°08' E 004°08'1514.8
2014-Aug-09 02:33N 39°19' E 004°22'1514.8
2014-Aug-09 01:32N 39°29' E 004°36'1614.7
2014-Aug-09 00:26N 39°39' E 004°53'1314.3
2014-Aug-08 23:34N 39°51' E 004°54'1414.4
2014-Aug-08 22:33N 40°06' E 004°54'1515.3
2014-Aug-08 21:33N 40°21' E 004°55'1414.1
2014-Aug-08 20:33N 40°35' E 004°55'1413.9
2014-Aug-08 19:33N 40°49' E 004°55'1514.5
2014-Aug-08 18:33N 41°04' E 004°56'1514.5
2014-Aug-08 17:33N 41°18' E 004°57'1515.4
2014-Aug-08 16:33N 41°33' E 004°57'1413.8
2014-Aug-08 15:33N 41°47' E 004°58'1615.3
2014-Aug-08 14:33N 42°03' E 004°58'1514.6
2014-Aug-08 13:33N 42°17' E 004°58'1414.0
2014-Aug-08 12:33N 42°31' E 004°58'1515.2
2014-Aug-08 11:33N 42°46' E 004°58'1515.2
2014-Aug-08 10:33N 43°01' E 004°59'1414.3
2014-Aug-08 09:33N 43°16' E 004°60'8 7.8
2014-Aug-08 08:31N 43°24' E 004°60'0 0.0
2014-Aug-08 07:31N 43°24' E 004°60'0 0.0
2014-Aug-08 06:31N 43°24' E 004°60'0 0.0
2014-Aug-08 05:31N 43°24' E 004°60'0 0.0
2014-Aug-08 04:31N 43°24' E 004°60'0 0.0
2014-Aug-08 03:31N 43°24' E 004°60'0 0.0
2014-Aug-08 02:31N 43°24' E 004°60'0 0.0
2014-Aug-08 01:31N 43°24' E 004°60'0 0.0
2014-Aug-08 00:31N 43°24' E 004°60'0 0.0
2014-Aug-07 23:31N 43°24' E 004°60'0 0.0
2014-Aug-07 22:31N 43°24' E 004°60'0 0.0
2014-Aug-07 21:31N 43°24' E 004°60'0 0.0
2014-Aug-07 20:31N 43°24' E 004°60'0 0.0
2014-Aug-07 19:31N 43°24' E 004°60'0 0.0
2014-Aug-07 18:31N 43°24' E 004°60'0 0.0
2014-Aug-07 17:31N 43°24' E 004°60'0 0.0
2014-Aug-07 16:31N 43°24' E 004°60'0 0.0
2014-Aug-07 15:31N 43°24' E 004°60'0 0.0
2014-Aug-07 14:31N 43°24' E 004°60'0 0.0
2014-Aug-07 13:31N 43°24' E 004°60'0 0.0
2014-Aug-07 12:31N 43°24' E 004°60'0 0.0
2014-Aug-07 11:31N 43°24' E 004°60'0 0.0
2014-Aug-07 10:31N 43°24' E 004°60'0 0.0
2014-Aug-07 09:31N 43°24' E 004°60'0 0.0
2014-Aug-07 08:31N 43°24' E 004°60'3 3.5
2014-Aug-07 07:33N 43°21' E 004°59'7 7.0
2014-Aug-07 06:33N 43°14' E 005°02'  
Track history (hours):
 
Tides and Currents Weather Stations Pressure Air Temp Water Temp Dewpoint Dewpoint Depression Visibility Wind Speed Wind Dir Waves Ship Positions

Gaz Venture

Last reported at 2014-Aug-17 06:33 UTC. Time now 2014-Aug-23 13:26 UTC.
Position N 36°21' E 014°48'.

Length 120 m; draft 7.9 m.

Type: Ship. MMSI: 356141000.

Date/timePositionNaut miles runAvg speedWind from/ knotsBaromVisibWave heightAir tempDewpointWater temp
2014-Aug-17 06:33N 36°21' E 014°48'1514.8
2014-Aug-17 05:33N 36°26' E 014°31'1514.8
2014-Aug-17 04:33N 36°31' E 014°13'1514.7
2014-Aug-17 03:33N 36°36' E 013°56'1914.7
2014-Aug-17 02:15N 36°42' E 013°33'1014.8
2014-Aug-17 01:33N 36°45' E 013°21'1514.7
2014-Aug-17 00:33N 36°50' E 013°04'1514.4
2014-Aug-16 23:32N 36°54' E 012°46'1414.3
2014-Aug-16 22:33N 36°59' E 012°30'5714.3
2014-Aug-16 18:33N 37°17' E 011°22'1414.3
2014-Aug-16 17:33N 37°23' E 011°06'1514.5
2014-Aug-16 16:33N 37°27' E 010°48'1414.3
2014-Aug-16 15:33N 37°31' E 010°31'1514.8
2014-Aug-16 14:33N 37°34' E 010°13'1615.1
2014-Aug-16 13:28N 37°32' E 009°52'1514.7
2014-Aug-16 12:28N 37°28' E 009°34'1314.4
2014-Aug-16 11:33N 37°24' E 009°18'  
2014-Aug-13 15:28N 36°45' E 000°39'1 0.7
2014-Aug-13 14:22N 36°44' E 000°38'1 0.9
2014-Aug-13 13:28N 36°44' E 000°37'1 0.9
2014-Aug-13 12:28N 36°44' E 000°35'11 1.2
2014-Aug-13 03:10N 36°40' E 000°23'5 1.6
2014-Aug-13 00:16N 36°37' E 000°18'1 1.3
2014-Aug-12 23:16N 36°37' E 000°16'1 1.0
2014-Aug-12 22:28N 36°36' E 000°15'1 0.8
2014-Aug-12 21:11N 36°36' E 000°14'1 0.9
2014-Aug-12 20:20N 36°35' E 000°14'1 0.7
2014-Aug-12 19:28N 36°35' E 000°13'11 0.8
2014-Aug-12 05:19N 36°29' E 000°01'1 1.1
2014-Aug-12 04:28N 36°29' W 000°00'1 1.1
2014-Aug-12 03:28N 36°28' W 000°02'1 1.2
2014-Aug-12 02:25N 36°27' W 000°03'3 1.1
2014-Aug-11 23:19N 36°26' W 000°06'4 1.0
2014-Aug-11 19:31N 36°24' W 000°11'1 1.3
2014-Aug-11 18:28N 36°24' W 000°12'6 6.7
2014-Aug-11 17:33N 36°18' W 000°13'1313.2
2014-Aug-11 16:33N 36°04' W 000°14'1312.9
2014-Aug-11 15:33N 35°52' W 000°15'2 0.1
2014-Aug-10 20:33N 35°51' W 000°17'4 4.2
2014-Aug-10 19:33N 35°53' W 000°13'9 9.5
2014-Aug-10 18:33N 36°03' W 000°12'1 1.4
2014-Aug-10 17:33N 36°04' W 000°13'1 1.2
2014-Aug-10 16:30N 36°05' W 000°14'9 7.6
2014-Aug-10 15:22N 36°00' W 000°05'1 0.7
2014-Aug-10 14:22N 36°00' W 000°06'1 1.0
2014-Aug-10 13:22N 36°01' W 000°07'1 0.8
2014-Aug-10 12:31N 36°01' W 000°08'1 0.5
2014-Aug-10 11:25N 36°01' W 000°08'1 0.9
2014-Aug-10 10:32N 36°02' W 000°08'6 5.7
2014-Aug-10 09:31N 35°58' W 000°13'0 0.3
2014-Aug-10 08:25N 35°58' W 000°13'1 0.3
2014-Aug-10 06:28N 35°58' W 000°12'1 0.5
2014-Aug-10 05:28N 35°58' W 000°12'1 0.6
2014-Aug-10 04:31N 35°59' W 000°12'1 0.7
2014-Aug-10 03:19N 35°59' W 000°12'1 0.7
2014-Aug-10 02:28N 35°60' W 000°13'3 2.6
2014-Aug-10 01:09N 36°01' W 000°08'1 0.7
2014-Aug-10 00:21N 36°01' W 000°09'1 1.1
2014-Aug-09 23:33N 36°02' W 000°10'1 0.9
2014-Aug-09 22:29N 36°02' W 000°11'3 3.0
2014-Aug-09 21:33N 36°03' W 000°07'1614.8
2014-Aug-09 20:30N 36°12' E 000°08'1815.5
2014-Aug-09 19:19N 36°25' E 000°25'1114.9
2014-Aug-09 18:33N 36°33' E 000°35'1615.0
2014-Aug-09 17:30N 36°43' E 000°50'1415.3
2014-Aug-09 16:33N 36°53' E 001°03'1715.4
2014-Aug-09 15:28N 37°05' E 001°18'1415.6
2014-Aug-09 14:33N 37°14' E 001°31'1615.7
2014-Aug-09 13:33N 37°25' E 001°46'1515.1
2014-Aug-09 12:32N 37°35' E 001°60'1515.1
2014-Aug-09 11:34N 37°45' E 002°14'1515.1
2014-Aug-09 10:34N 37°56' E 002°28'1615.7
2014-Aug-09 09:33N 38°06' E 002°43'1615.7
2014-Aug-09 08:33N 38°17' E 002°57'1515.4
2014-Aug-09 07:33N 38°27' E 003°11'1515.2
2014-Aug-09 06:33N 38°38' E 003°26'1515.1
2014-Aug-09 05:33N 38°48' E 003°40'1515.0
2014-Aug-09 04:33N 38°58' E 003°54'1514.9
2014-Aug-09 03:33N 39°08' E 004°08'1514.8
2014-Aug-09 02:33N 39°19' E 004°22'1514.8
2014-Aug-09 01:32N 39°29' E 004°36'1614.7
2014-Aug-09 00:26N 39°39' E 004°53'1314.3
2014-Aug-08 23:34N 39°51' E 004°54'1414.4
2014-Aug-08 22:33N 40°06' E 004°54'1515.3
2014-Aug-08 21:33N 40°21' E 004°55'1414.1
2014-Aug-08 20:33N 40°35' E 004°55'1413.9
2014-Aug-08 19:33N 40°49' E 004°55'1514.5
2014-Aug-08 18:33N 41°04' E 004°56'1514.5
2014-Aug-08 17:33N 41°18' E 004°57'1515.4
2014-Aug-08 16:33N 41°33' E 004°57'1413.8
2014-Aug-08 15:33N 41°47' E 004°58'1615.3
2014-Aug-08 14:33N 42°03' E 004°58'1514.6
2014-Aug-08 13:33N 42°17' E 004°58'1414.0
2014-Aug-08 12:33N 42°31' E 004°58'1515.2
2014-Aug-08 11:33N 42°46' E 004°58'1515.2
2014-Aug-08 10:33N 43°01' E 004°59'1414.3
2014-Aug-08 09:33N 43°16' E 004°60'8 7.8
2014-Aug-08 08:31N 43°24' E 004°60'0 0.0
2014-Aug-08 07:31N 43°24' E 004°60'0 0.0
2014-Aug-08 06:31N 43°24' E 004°60'0 0.0
2014-Aug-08 05:31N 43°24' E 004°60'0 0.0
2014-Aug-08 04:31N 43°24' E 004°60'0 0.0
2014-Aug-08 03:31N 43°24' E 004°60'0 0.0
2014-Aug-08 02:31N 43°24' E 004°60'0 0.0
2014-Aug-08 01:31N 43°24' E 004°60'0 0.0
2014-Aug-08 00:31N 43°24' E 004°60'0 0.0
2014-Aug-07 23:31N 43°24' E 004°60'0 0.0
2014-Aug-07 22:31N 43°24' E 004°60'0 0.0
2014-Aug-07 21:31N 43°24' E 004°60'0 0.0
2014-Aug-07 20:31N 43°24' E 004°60'0 0.0
2014-Aug-07 19:31N 43°24' E 004°60'0 0.0
2014-Aug-07 18:31N 43°24' E 004°60'0 0.0
2014-Aug-07 17:31N 43°24' E 004°60'0 0.0
2014-Aug-07 16:31N 43°24' E 004°60'0 0.0
2014-Aug-07 15:31N 43°24' E 004°60'0 0.0
2014-Aug-07 14:31N 43°24' E 004°60'0 0.0
2014-Aug-07 13:31N 43°24' E 004°60'0 0.0
2014-Aug-07 12:31N 43°24' E 004°60'0 0.0
2014-Aug-07 11:31N 43°24' E 004°60'0 0.0
2014-Aug-07 10:31N 43°24' E 004°60'0 0.0
2014-Aug-07 09:31N 43°24' E 004°60'0 0.0
2014-Aug-07 08:31N 43°24' E 004°60'3 3.5
2014-Aug-07 07:33N 43°21' E 004°59'7 7.0
2014-Aug-07 06:33N 43°14' E 005°02'  

Dump ship's entire track history